createdAt,value
2022-07-31T00:00:20.063Z,101582.88
2022-07-31T00:02:48.654Z,101577.97
2022-07-31T00:05:20.016Z,101571.25
2022-07-31T00:07:48.301Z,101574.34
2022-07-31T00:10:19.158Z,101569.19
2022-07-31T00:12:47.219Z,101564.06
2022-07-31T00:15:14.092Z,101565.44
2022-07-31T00:17:42.271Z,101564.94
2022-07-31T00:20:13.423Z,101560.81
2022-07-31T00:22:44.433Z,101558.50
2022-07-31T00:25:12.602Z,101566.97
2022-07-31T00:27:40.393Z,101557.69
2022-07-31T00:30:07.803Z,101547.66
2022-07-31T00:32:34.655Z,101555.50
2022-07-31T00:35:01.689Z,101549.78
2022-07-31T00:37:28.236Z,101550.16
2022-07-31T00:39:54.831Z,101545.88
2022-07-31T00:42:23.214Z,101546.72
2022-07-31T00:44:51.275Z,101546.50
2022-07-31T00:47:18.922Z,101540.97
2022-07-31T00:49:50.926Z,101534.00
2022-07-31T00:52:17.494Z,101538.88
2022-07-31T00:54:44.116Z,101529.34
2022-07-31T00:57:10.784Z,101529.84
2022-07-31T00:59:37.449Z,101527.53
2022-07-31T01:02:04.735Z,101529.34
2022-07-31T01:04:31.543Z,101523.13
2022-07-31T01:07:00.654Z,101528.38
2022-07-31T01:09:27.736Z,101522.16
2022-07-31T01:11:59.336Z,101525.69
2022-07-31T01:14:29.854Z,101529.13
2022-07-31T01:16:59.269Z,101529.84
2022-07-31T01:19:42.041Z,101521.63
2022-07-31T01:22:46.949Z,101516.16
2022-07-31T01:25:51.826Z,101517.97
2022-07-31T01:29:00.458Z,101513.47
2022-07-31T01:31:53.461Z,101514.34
2022-07-31T01:34:27.864Z,101516.03
2022-07-31T01:37:06.860Z,101523.22
2022-07-31T01:39:41.572Z,101517.03
2022-07-31T01:42:12.045Z,101517.75
2022-07-31T01:44:43.495Z,101509.28
2022-07-31T01:47:19.119Z,101508.81
2022-07-31T01:49:47.872Z,101513.06
2022-07-31T01:52:15.298Z,101510.25
2022-07-31T01:54:44.200Z,101508.41
2022-07-31T01:57:13.152Z,101512.22
2022-07-31T01:59:46.340Z,101509.63
2022-07-31T02:02:14.885Z,101503.28
2022-07-31T02:04:47.089Z,101500.59
2022-07-31T02:07:15.184Z,101496.06
2022-07-31T02:09:58.310Z,101501.31
2022-07-31T02:12:32.109Z,101502.31
2022-07-31T02:15:06.487Z,101491.56
2022-07-31T02:17:34.491Z,101498.75
2022-07-31T02:20:02.197Z,101494.34
2022-07-31T02:22:29.667Z,101494.50
2022-07-31T02:24:56.390Z,101489.38
2022-07-31T02:27:55.439Z,101492.19
2022-07-31T02:30:13.531Z,101491.34
2022-07-31T02:32:41.500Z,101495.72
2022-07-31T02:35:09.900Z,101492.06
2022-07-31T02:37:38.356Z,101490.22
2022-07-31T02:40:06.689Z,101490.94
2022-07-31T02:42:34.273Z,101477.63
2022-07-31T02:45:02.476Z,101480.56
2022-07-31T02:47:29.597Z,101472.03
2022-07-31T02:49:58.059Z,101470.56
2022-07-31T02:52:26.500Z,101472.53
2022-07-31T02:54:53.616Z,101476.31
2022-07-31T02:57:20.326Z,101467.53
2022-07-31T02:59:46.982Z,101467.91
2022-07-31T03:02:13.561Z,101460.91
2022-07-31T03:04:40.289Z,101464.56
2022-07-31T03:07:06.954Z,101464.72
2022-07-31T03:09:33.689Z,101470.94
2022-07-31T03:12:04.361Z,101462.63
2022-07-31T03:14:33.114Z,101466.09
2022-07-31T03:17:00.667Z,101457.00
2022-07-31T03:19:28.720Z,101463.16
2022-07-31T03:21:56.366Z,101459.47
2022-07-31T03:24:23.108Z,101462.41
2022-07-31T03:26:49.801Z,101453.59
2022-07-31T03:29:39.182Z,101453.81
2022-07-31T03:32:03.469Z,101449.53
2022-07-31T03:34:30.193Z,101453.34
2022-07-31T03:36:56.764Z,101459.72
2022-07-31T03:39:23.330Z,101450.94
2022-07-31T03:41:51.463Z,101450.16
2022-07-31T03:44:20.155Z,101455.31
2022-07-31T03:46:47.150Z,101458.34
2022-07-31T03:49:14.688Z,101448.31
2022-07-31T03:51:41.382Z,101449.88
2022-07-31T03:54:08.064Z,101449.88
2022-07-31T03:56:35.761Z,101458.91
2022-07-31T03:59:03.393Z,101456.38
2022-07-31T04:01:57.512Z,101454.53
2022-07-31T04:04:18.440Z,101467.13
2022-07-31T04:06:45.124Z,101462.72
2022-07-31T04:09:18.431Z,101458.44
2022-07-31T04:11:46.028Z,101462.25
2022-07-31T04:14:12.714Z,101466.75
2022-07-31T04:16:39.288Z,101463.09
2022-07-31T04:19:05.882Z,101471.88
2022-07-31T04:21:32.513Z,101473.72
2022-07-31T04:23:59.220Z,101471.88
2022-07-31T04:26:26.373Z,101471.88
2022-07-31T04:28:53.192Z,101471.78
2022-07-31T04:31:19.989Z,101471.78
2022-07-31T04:33:48.354Z,101455.50
2022-07-31T04:36:29.678Z,101463.44
2022-07-31T04:39:01.430Z,101460.88
2022-07-31T04:41:28.657Z,101452.22
2022-07-31T04:43:57.280Z,101443.56
2022-07-31T04:46:27.041Z,101431.09
2022-07-31T04:48:53.683Z,101426.81
2022-07-31T04:51:22.017Z,101436.75
2022-07-31T04:53:50.194Z,101431.38
2022-07-31T04:56:33.444Z,101429.50
2022-07-31T04:59:06.690Z,101432.19
2022-07-31T05:01:34.521Z,101430.34
2022-07-31T05:04:01.593Z,101428.53
2022-07-31T05:06:40.557Z,101434.78
2022-07-31T05:09:15.084Z,101425.69
2022-07-31T05:11:46.009Z,101429.13
2022-07-31T05:14:14.505Z,101426.19
2022-07-31T05:16:41.104Z,101422.38
2022-07-31T05:19:13.765Z,101428.38
2022-07-31T05:21:52.877Z,101430.06
2022-07-31T05:24:32.584Z,101426.41
2022-07-31T05:27:02.481Z,101428.94
2022-07-31T05:29:29.804Z,101435.09
2022-07-31T05:32:00.505Z,101436.50
2022-07-31T05:34:30.130Z,101429.06
2022-07-31T05:36:59.185Z,101438.72
2022-07-31T05:39:26.683Z,101439.13
2022-07-31T05:41:53.253Z,101435.22
2022-07-31T05:44:19.923Z,101435.69
2022-07-31T05:46:46.628Z,101437.84
2022-07-31T05:49:13.409Z,101427.69
2022-07-31T05:51:43.649Z,101432.69
2022-07-31T05:54:10.263Z,101422.53
2022-07-31T05:56:36.891Z,101421.41
2022-07-31T05:59:03.832Z,101419.44
2022-07-31T06:01:30.573Z,101426.25
2022-07-31T06:03:57.332Z,101436.75
2022-07-31T06:06:23.912Z,101429.44
2022-07-31T06:08:50.494Z,101430.88
2022-07-31T06:11:17.177Z,101425.97
2022-07-31T06:13:43.910Z,101421.16
2022-07-31T06:16:16.595Z,101420.75
2022-07-31T06:18:43.201Z,101431.97
2022-07-31T06:23:37.001Z,101428.75
2022-07-31T06:26:04.339Z,101430.19
2022-07-31T06:28:48.137Z,101421.84
2022-07-31T06:31:25.080Z,101421.56
2022-07-31T06:33:52.663Z,101424.72
2022-07-31T06:36:19.582Z,101424.78
2022-07-31T06:38:46.480Z,101428.69
2022-07-31T06:41:36.131Z,101433.28
2022-07-31T06:44:02.797Z,101434.28
2022-07-31T06:46:29.442Z,101428.47
2022-07-31T06:48:56.111Z,101426.09
2022-07-31T06:51:31.666Z,101424.81
2022-07-31T06:54:03.504Z,101429.66
2022-07-31T06:56:31.517Z,101416.72
2022-07-31T06:58:58.237Z,101413.75
2022-07-31T07:01:24.873Z,101419.75
2022-07-31T07:03:51.576Z,101407.94
2022-07-31T07:06:18.544Z,101398.72
2022-07-31T07:08:45.494Z,101406.38
2022-07-31T07:11:12.795Z,101407.81
2022-07-31T07:13:45.980Z,101396.88
2022-07-31T07:16:14.424Z,101404.41
2022-07-31T07:18:41.060Z,101401.28
2022-07-31T07:21:07.661Z,101401.47
2022-07-31T07:23:35.710Z,101399.88
2022-07-31T07:26:02.459Z,101394.75
2022-07-31T07:28:30.572Z,101390.63
2022-07-31T07:30:57.898Z,101390.03
2022-07-31T07:33:40.714Z,101390.31
2022-07-31T07:36:23.426Z,101389.59
2022-07-31T07:38:55.730Z,101389.00
2022-07-31T07:41:26.376Z,101387.72
2022-07-31T07:43:53.447Z,101373.94
2022-07-31T07:46:22.183Z,101376.19
2022-07-31T07:48:51.007Z,101377.59
2022-07-31T07:51:18.206Z,101373.56
2022-07-31T07:53:44.776Z,101372.44
2022-07-31T07:56:11.564Z,101375.56
2022-07-31T07:58:38.235Z,101373.44
2022-07-31T08:01:04.917Z,101371.31
2022-07-31T08:03:49.879Z,101365.56
2022-07-31T08:06:18.629Z,101362.44
2022-07-31T08:08:45.297Z,101370.94
2022-07-31T08:11:17.411Z,101366.09
2022-07-31T08:13:50.078Z,101366.66
2022-07-31T08:16:17.790Z,101368.91
2022-07-31T08:18:44.468Z,101367.75
2022-07-31T08:21:11.262Z,101364.88
2022-07-31T08:23:38.181Z,101354.63
2022-07-31T08:26:06.563Z,101355.31
2022-07-31T08:28:33.264Z,101345.38
2022-07-31T08:31:00.712Z,101348.19
2022-07-31T08:33:27.473Z,101346.34
2022-07-31T08:35:54.212Z,101354.16
2022-07-31T08:38:21.941Z,101357.56
2022-07-31T08:40:48.793Z,101357.25
2022-07-31T08:46:03.257Z,101354.94
2022-07-31T08:48:32.761Z,101352.78
2022-07-31T08:51:02.634Z,101351.31
2022-07-31T08:53:33.021Z,101348.31
2022-07-31T08:56:00.399Z,101348.06
2022-07-31T08:58:27.136Z,101339.63
2022-07-31T09:00:53.878Z,101337.63
2022-07-31T09:03:20.731Z,101335.59
2022-07-31T09:05:47.536Z,101330.03
2022-07-31T09:08:15.139Z,101328.03
2022-07-31T09:10:46.287Z,101329.25
2022-07-31T09:13:18.178Z,101314.25
2022-07-31T09:15:45.290Z,101312.50
2022-07-31T09:18:21.404Z,101309.81
2022-07-31T09:20:59.563Z,101303.13
2022-07-31T09:23:28.310Z,101303.50
2022-07-31T09:26:02.023Z,101301.84
2022-07-31T09:28:39.707Z,101303.28
2022-07-31T09:31:09.437Z,101304.22
2022-07-31T09:33:45.147Z,101304.78
2022-07-31T09:36:14.151Z,101300.78
2022-07-31T09:38:43.378Z,101301.34
2022-07-31T09:41:55.638Z,101304.97
2022-07-31T09:44:09.633Z,101296.69
2022-07-31T09:46:47.178Z,101299.31
2022-07-31T09:49:14.775Z,101295.97
2022-07-31T09:51:44.414Z,101307.84
2022-07-31T09:54:25.401Z,101301.59
2022-07-31T09:56:52.446Z,101296.66
2022-07-31T09:59:19.699Z,101299.72
2022-07-31T10:01:49.130Z,101304.31
2022-07-31T10:04:20.892Z,101299.09
2022-07-31T10:06:49.855Z,101296.88
2022-07-31T10:09:20.090Z,101299.44
2022-07-31T10:11:49.771Z,101302.16
2022-07-31T10:14:28.214Z,101301.88
2022-07-31T10:16:58.616Z,101297.31
2022-07-31T10:19:27.878Z,101296.59
2022-07-31T10:21:57.576Z,101291.16
2022-07-31T10:24:28.376Z,101292.34
2022-07-31T10:27:01.157Z,101277.75
2022-07-31T10:29:32.871Z,101274.31
2022-07-31T10:32:01.187Z,101265.63
2022-07-31T10:34:28.569Z,101252.38
2022-07-31T10:36:59.171Z,101249.50
2022-07-31T10:39:43.744Z,101255.28
2022-07-31T10:42:30.748Z,101249.84
2022-07-31T10:45:04.047Z,101250.50
2022-07-31T10:47:31.071Z,101249.13
2022-07-31T10:49:57.929Z,101245.03
2022-07-31T10:52:31.476Z,101233.97
2022-07-31T10:55:01.744Z,101238.75
2022-07-31T10:57:33.381Z,101234.19
2022-07-31T11:00:21.319Z,101231.13
2022-07-31T11:02:48.428Z,101230.06
2022-07-31T11:05:23.913Z,101226.47
2022-07-31T11:08:02.937Z,101224.25
2022-07-31T11:10:29.844Z,101217.88
2022-07-31T11:13:15.656Z,101216.69
2022-07-31T11:15:42.380Z,101219.41
2022-07-31T11:18:24.365Z,101215.31
2022-07-31T11:21:17.375Z,101225.09
2022-07-31T11:24:02.080Z,101224.03
2022-07-31T11:26:33.348Z,101222.44
2022-07-31T11:30:01.343Z,101225.00
2022-07-31T11:32:16.626Z,101222.28
2022-07-31T11:34:43.638Z,101218.72
2022-07-31T11:37:20.486Z,101216.16
2022-07-31T11:39:51.300Z,101218.22
2022-07-31T11:42:20.303Z,101207.53
2022-07-31T11:45:01.787Z,101210.25
2022-07-31T11:48:12.797Z,101213.16
2022-07-31T11:50:31.052Z,101221.50
2022-07-31T11:53:06.872Z,101208.09
2022-07-31T11:55:48.684Z,101201.28
2022-07-31T11:58:17.214Z,101204.00
2022-07-31T12:00:48.167Z,101213.22
2022-07-31T12:03:17.825Z,101200.63
2022-07-31T12:05:49.256Z,101195.75
2022-07-31T12:08:16.894Z,101197.59
2022-07-31T12:10:45.456Z,101187.78
2022-07-31T12:13:16.038Z,101189.81
2022-07-31T12:15:59.912Z,101190.19
2022-07-31T12:18:28.632Z,101193.25
2022-07-31T12:21:03.426Z,101183.59
2022-07-31T12:23:49.990Z,101190.91
2022-07-31T12:26:28.453Z,101192.59
2022-07-31T12:29:05.460Z,101192.59
2022-07-31T12:31:44.665Z,101192.09
2022-07-31T12:34:11.380Z,101193.31
2022-07-31T12:36:37.944Z,101193.81
2022-07-31T12:39:06.340Z,101199.13
2022-07-31T12:41:43.199Z,101199.16
2022-07-31T12:44:14.577Z,101205.47
2022-07-31T12:46:42.005Z,101205.34
2022-07-31T12:49:09.000Z,101210.47
2022-07-31T12:51:45.578Z,101212.88
2022-07-31T12:54:14.769Z,101206.41
2022-07-31T12:56:42.924Z,101214.63
2022-07-31T12:59:10.359Z,101208.31
2022-07-31T13:01:37.581Z,101208.34
2022-07-31T13:04:08.057Z,101215.66
2022-07-31T13:06:48.757Z,101218.41
2022-07-31T13:09:15.673Z,101214.69
2022-07-31T13:11:46.871Z,101221.81
2022-07-31T13:14:19.642Z,101217.91
2022-07-31T13:16:47.361Z,101224.72
2022-07-31T13:19:14.647Z,101213.69
2022-07-31T13:21:48.888Z,101217.09
2022-07-31T13:24:19.097Z,101212.16
2022-07-31T13:26:45.891Z,101213.66
2022-07-31T13:29:13.187Z,101207.72
2022-07-31T13:31:40.287Z,101214.00
2022-07-31T13:34:07.543Z,101212.66
2022-07-31T13:36:39.469Z,101210.09
2022-07-31T13:39:10.740Z,101208.72
2022-07-31T13:41:39.411Z,101204.00
2022-07-31T13:44:06.648Z,101207.38
2022-07-31T13:46:33.504Z,101200.06
2022-07-31T13:49:02.319Z,101203.44
2022-07-31T13:51:30.206Z,101200.22
2022-07-31T13:53:57.320Z,101198.69
2022-07-31T13:56:39.549Z,101203.44
2022-07-31T13:59:09.927Z,101199.31
2022-07-31T14:02:05.136Z,101190.84
2022-07-31T14:04:31.231Z,101194.91
2022-07-31T14:07:00.695Z,101194.38
2022-07-31T14:09:28.088Z,101186.59
2022-07-31T14:11:56.139Z,101182.34
2022-07-31T14:14:23.772Z,101177.94
2022-07-31T14:16:50.745Z,101186.25
2022-07-31T14:19:17.572Z,101179.97
2022-07-31T14:21:56.303Z,101187.44
2022-07-31T14:24:25.483Z,101195.88
2022-07-31T14:26:52.654Z,101188.06
2022-07-31T14:29:20.052Z,101179.28
2022-07-31T14:31:47.248Z,101175.88
2022-07-31T14:34:14.424Z,101169.25
2022-07-31T14:36:41.073Z,101165.19
2022-07-31T14:39:07.706Z,101169.06
2022-07-31T14:41:34.574Z,101161.25
2022-07-31T14:44:01.194Z,101167.84
2022-07-31T14:46:27.778Z,101170.03
2022-07-31T14:48:54.562Z,101159.53
2022-07-31T14:51:21.496Z,101151.41
2022-07-31T14:53:48.216Z,101162.41
2022-07-31T14:56:23.437Z,101162.72
2022-07-31T14:59:01.612Z,101154.78
2022-07-31T15:01:30.631Z,101158.66
2022-07-31T15:03:58.432Z,101157.41
2022-07-31T15:06:41.580Z,101157.91
2022-07-31T15:09:12.306Z,101159.38
2022-07-31T15:11:59.055Z,101154.28
2022-07-31T15:14:29.376Z,101148.50
2022-07-31T15:16:56.746Z,101148.00
2022-07-31T15:19:23.352Z,101152.88
2022-07-31T15:22:10.470Z,101158.47
2022-07-31T15:24:36.935Z,101151.50
2022-07-31T15:27:04.162Z,101145.72
2022-07-31T15:30:05.644Z,101150.78
2022-07-31T15:32:17.774Z,101157.53
2022-07-31T15:34:44.750Z,101151.56
2022-07-31T15:37:20.377Z,101143.94
2022-07-31T15:40:02.329Z,101143.56
2022-07-31T15:42:37.915Z,101139.00
2022-07-31T15:45:05.116Z,101143.56
2022-07-31T15:47:32.359Z,101140.19
2022-07-31T15:49:59.095Z,101133.53
2022-07-31T15:52:26.349Z,101128.88
2022-07-31T15:54:53.393Z,101118.31
2022-07-31T15:57:21.482Z,101119.28
2022-07-31T15:59:49.297Z,101118.75
2022-07-31T16:02:16.154Z,101119.91
2022-07-31T16:04:51.544Z,101121.09
2022-07-31T16:08:30.686Z,101119.69
2022-07-31T16:10:16.569Z,101111.34
2022-07-31T16:12:48.184Z,101116.22
2022-07-31T16:15:16.611Z,101115.69
2022-07-31T16:17:43.810Z,101103.81
2022-07-31T16:20:11.989Z,101104.25
2022-07-31T16:22:41.092Z,101108.28
2022-07-31T16:25:09.998Z,101107.69
2022-07-31T16:27:37.953Z,101099.19
2022-07-31T16:30:06.605Z,101097.81
2022-07-31T16:32:33.753Z,101096.44
2022-07-31T16:35:01.519Z,101097.59
2022-07-31T16:37:50.091Z,101093.34
2022-07-31T16:40:29.324Z,101090.97
2022-07-31T16:43:00.960Z,101081.47
2022-07-31T16:45:28.232Z,101081.78
2022-07-31T16:47:54.916Z,101081.09
2022-07-31T16:50:21.605Z,101080.38
2022-07-31T16:52:52.698Z,101075.13
2022-07-31T16:55:21.900Z,101069.03
2022-07-31T16:58:11.219Z,101073.88
2022-07-31T17:00:39.682Z,101064.25
2022-07-31T17:03:06.444Z,101065.41
2022-07-31T17:05:33.297Z,101059.31
2022-07-31T17:08:00.021Z,101065.72
2022-07-31T17:10:27.049Z,101063.31
2022-07-31T17:12:54.442Z,101054.53
2022-07-31T17:15:21.382Z,101049.28
2022-07-31T17:17:48.249Z,101052.13
2022-07-31T17:20:15.150Z,101055.81
2022-07-31T17:22:42.918Z,101052.13
2022-07-31T17:25:10.422Z,101046.06
2022-07-31T17:27:37.119Z,101050.72
2022-07-31T17:30:04.618Z,101042.94
2022-07-31T17:32:32.441Z,101049.19
2022-07-31T17:34:59.286Z,101044.81
2022-07-31T17:37:26.218Z,101052.03
2022-07-31T17:39:57.876Z,101048.47
2022-07-31T17:42:25.865Z,101041.41
2022-07-31T17:44:55.757Z,101039.13
2022-07-31T17:47:25.600Z,101036.59
2022-07-31T17:49:53.586Z,101036.59
2022-07-31T17:52:23.153Z,101035.75
2022-07-31T17:54:51.369Z,101034.91
2022-07-31T17:57:18.509Z,101032.91
2022-07-31T17:59:45.507Z,101030.06
2022-07-31T18:02:12.297Z,101037.84
2022-07-31T18:04:39.072Z,101029.00
2022-07-31T18:07:07.425Z,101038.47
2022-07-31T18:09:35.198Z,101040.31
2022-07-31T18:12:02.208Z,101031.41
2022-07-31T18:14:28.933Z,101038.78
2022-07-31T18:16:55.646Z,101038.94
2022-07-31T18:19:22.756Z,101034.22
2022-07-31T18:21:50.732Z,101040.47
2022-07-31T18:24:17.360Z,101033.38
2022-07-31T18:26:44.091Z,101033.38
2022-07-31T18:29:10.820Z,101035.25
2022-07-31T18:31:37.849Z,101030.84
2022-07-31T18:34:05.662Z,101036.25
2022-07-31T18:36:34.329Z,101038.94
2022-07-31T18:39:01.382Z,101032.56
2022-07-31T18:41:28.028Z,101033.38
2022-07-31T18:43:55.077Z,101036.06
2022-07-31T18:46:23.650Z,101038.78
2022-07-31T18:48:55.327Z,101042.63
2022-07-31T18:51:24.004Z,101031.00
2022-07-31T18:53:51.105Z,101042.63
2022-07-31T18:56:17.845Z,101040.78
2022-07-31T18:58:44.956Z,101045.19
2022-07-31T19:01:11.965Z,101037.94
2022-07-31T19:03:38.665Z,101045.03
2022-07-31T19:06:05.458Z,101033.78
2022-07-31T19:08:32.200Z,101041.34
2022-07-31T19:10:59.461Z,101038.66
2022-07-31T19:13:26.206Z,101039.66
2022-07-31T19:15:55.860Z,101033.41
2022-07-31T19:18:28.077Z,101038.97
2022-07-31T19:21:22.602Z,101038.09
2022-07-31T19:23:43.585Z,101035.41
2022-07-31T19:26:10.437Z,101031.72
2022-07-31T19:28:38.281Z,101045.22
2022-07-31T19:31:05.679Z,101040.63
2022-07-31T19:33:32.408Z,101042.34
2022-07-31T19:36:02.273Z,101039.66
2022-07-31T19:38:31.144Z,101041.34
2022-07-31T19:40:58.034Z,101041.19
2022-07-31T19:43:24.720Z,101051.00
2022-07-31T19:46:09.796Z,101044.59
2022-07-31T19:48:42.863Z,101053.38
2022-07-31T19:51:11.552Z,101048.81
2022-07-31T19:53:38.568Z,101055.94
2022-07-31T19:56:06.250Z,101056.47
2022-07-31T19:58:35.064Z,101051.78
2022-07-31T20:01:02.870Z,101055.00
2022-07-31T20:03:29.779Z,101059.25
2022-07-31T20:05:57.102Z,101061.47
2022-07-31T20:08:23.990Z,101056.94
2022-07-31T20:10:51.463Z,101065.72
2022-07-31T20:13:18.799Z,101059.16
2022-07-31T20:15:51.098Z,101063.72
2022-07-31T20:18:27.617Z,101060.69
2022-07-31T20:20:57.262Z,101061.38
2022-07-31T20:23:25.158Z,101064.09
2022-07-31T20:25:51.790Z,101067.66
2022-07-31T20:28:18.495Z,101064.81
2022-07-31T20:30:45.155Z,101059.41
2022-07-31T20:33:13.237Z,101063.09
2022-07-31T20:35:47.893Z,101055.00
2022-07-31T20:38:17.477Z,101050.28
2022-07-31T20:40:49.947Z,101051.38
2022-07-31T20:43:21.500Z,101055.88
2022-07-31T20:45:48.405Z,101058.25
2022-07-31T20:48:17.853Z,101055.56
2022-07-31T20:50:47.711Z,101054.72
2022-07-31T20:53:15.253Z,101048.53
2022-07-31T20:55:46.877Z,101051.72
2022-07-31T20:58:13.782Z,101054.31
2022-07-31T21:00:40.957Z,101049.72
2022-07-31T21:03:07.719Z,101054.13
2022-07-31T21:05:34.302Z,101049.72
2022-07-31T21:08:00.881Z,101044.47
2022-07-31T21:10:29.680Z,101052.59
2022-07-31T21:12:56.830Z,101049.03
2022-07-31T21:15:41.729Z,101050.06
2022-07-31T21:18:21.375Z,101051.22
2022-07-31T21:20:50.861Z,101040.72
2022-07-31T21:23:24.372Z,101046.13
2022-07-31T21:25:52.314Z,101046.13
2022-07-31T21:28:19.500Z,101057.78
2022-07-31T21:30:46.208Z,101054.22
2022-07-31T21:33:13.167Z,101048.81
2022-07-31T21:35:40.631Z,101045.09
2022-07-31T21:38:11.781Z,101053.22
2022-07-31T21:40:40.287Z,101044.97
2022-07-31T21:43:07.775Z,101050.50
2022-07-31T21:45:50.417Z,101051.53
2022-07-31T21:48:23.251Z,101057.09
2022-07-31T21:50:49.989Z,101059.25
2022-07-31T21:53:16.599Z,101059.56
2022-07-31T21:55:44.013Z,101057.16
2022-07-31T21:58:10.758Z,101064.44
2022-07-31T22:00:37.469Z,101051.94
2022-07-31T22:03:05.435Z,101060.91
2022-07-31T22:05:51.552Z,101054.81
2022-07-31T22:08:18.902Z,101062.19
2022-07-31T22:10:46.141Z,101061.03
2022-07-31T22:13:12.788Z,101068.31
2022-07-31T22:15:54.240Z,101064.59
2022-07-31T22:18:27.189Z,101072.47
2022-07-31T22:20:54.396Z,101072.75
2022-07-31T22:23:21.282Z,101070.34
2022-07-31T22:25:50.907Z,101069.66
2022-07-31T22:28:19.881Z,101080.63
2022-07-31T22:30:47.281Z,101071.81
2022-07-31T22:33:14.411Z,101078.41
2022-07-31T22:35:41.160Z,101077.84
2022-07-31T22:38:11.117Z,101075.44
2022-07-31T22:40:37.853Z,101089.13
2022-07-31T22:44:10.268Z,101088.56
2022-07-31T22:45:53.525Z,101086.50
2022-07-31T22:48:24.311Z,101088.47
2022-07-31T22:50:50.948Z,101089.78
2022-07-31T22:53:18.180Z,101095.47
2022-07-31T22:55:44.843Z,101092.09
2022-07-31T22:58:14.980Z,101097.78
2022-07-31T23:00:42.533Z,101099.78
2022-07-31T23:03:09.351Z,101101.81
2022-07-31T23:06:13.151Z,101098.41
2022-07-31T23:08:22.579Z,101096.00
2022-07-31T23:10:49.314Z,101104.28
2022-07-31T23:13:15.960Z,101107.25
2022-07-31T23:15:43.753Z,101101.00
2022-07-31T23:18:10.381Z,101113.81
2022-07-31T23:20:36.940Z,101113.13
2022-07-31T23:23:03.513Z,101113.41
2022-07-31T23:25:30.091Z,101109.00
2022-07-31T23:27:56.699Z,101106.59
2022-07-31T23:30:24.300Z,101095.97
2022-07-31T23:32:50.876Z,101104.22
2022-07-31T23:35:17.753Z,101108.84
2022-07-31T23:37:44.709Z,101104.47
2022-07-31T23:40:11.891Z,101110.03
2022-07-31T23:42:38.496Z,101099.38
2022-07-31T23:45:12.238Z,101107.63
2022-07-31T23:47:45.670Z,101106.78
2022-07-31T23:50:14.037Z,101103.38
2022-07-31T23:52:41.007Z,101100.00
2022-07-31T23:55:08.338Z,101110.06
2022-07-31T23:57:36.078Z,101106.66
